Time;durP1;ratioP1;P1;durP2;ratioP2;P2;SDS_P1;SDS_P2;PMS_P1;PMS_P2;Temp;Humidity;BMP_temperature;BMP_pressure;BME280_temperature;BME280_humidity;BME280_pressure;Samples;Min_cycle;Max_cycle;Signal;HPM_P1;HPM_P2
2022/08/25 00:01:46;;;;;;;6.30;1.10;;;;;;;20.04;37.99;101924.44;5001506;28;20119;-78
2022/08/25 00:04:14;;;;;;;2.63;1.17;;;;;;;19.98;38.14;101920.38;4980503;28;20041;-79
2022/08/25 00:06:41;;;;;;;2.00;0.77;;;;;;;19.99;38.17;101915.91;5000051;28;20061;-78
2022/08/25 00:09:09;;;;;;;6.13;1.83;;;;;;;19.95;38.44;101920.59;5002991;28;20496;-79
2022/08/25 00:11:38;;;;;;;5.88;1.55;;;;;;;19.87;38.64;101912.25;5013616;28;20049;-80
2022/08/25 00:14:09;;;;;;;3.30;1.10;;;;;;;19.86;38.72;101926.44;4985728;28;20058;-77
2022/08/25 00:16:35;;;;;;;2.15;1.05;;;;;;;19.86;38.77;101918.47;4988356;28;20038;-79
2022/08/25 00:19:06;;;;;;;2.42;1.10;;;;;;;19.80;39.19;101911.78;5004049;28;20056;-78
2022/08/25 00:21:32;;;;;;;5.55;0.90;;;;;;;19.68;39.33;101918.72;4984394;28;20698;-76
2022/08/25 00:24:00;;;;;;;2.05;1.35;;;;;;;19.61;39.77;101921.81;4987895;28;20385;-77
2022/08/25 00:26:26;;;;;;;4.32;0.80;;;;;;;19.56;39.77;101923.91;5007103;28;20030;-76
2022/08/25 00:28:52;;;;;;;5.32;1.50;;;;;;;19.56;39.75;101919.47;4984006;28;20046;-78
2022/08/25 00:31:19;;;;;;;2.83;1.65;;;;;;;19.58;39.94;101928.19;5018199;28;20140;-77
2022/08/25 00:33:46;;;;;;;4.85;0.93;;;;;;;19.60;39.96;101920.13;5003771;28;20233;-76
2022/08/25 00:36:14;;;;;;;3.10;1.20;;;;;;;19.51;40.47;101916.22;5018260;28;20046;-77
2022/08/25 00:38:42;;;;;;;3.53;1.23;;;;;;;19.50;40.46;101925.09;4995102;28;20043;-77
2022/08/25 00:41:10;;;;;;;4.72;1.75;;;;;;;19.50;40.84;101919.78;4989806;28;20745;-76
2022/08/25 00:43:46;;;;;;;1.77;1.13;;;;;;;19.49;40.52;101918.09;5002641;28;20435;-79
2022/08/25 00:46:16;;;;;;;4.63;1.00;;;;;;;19.46;40.75;101920.97;5004401;28;20773;-78
2022/08/25 00:48:45;;;;;;;3.40;1.52;;;;;;;19.41;40.94;101920.38;5002606;28;20076;-78
2022/08/25 00:51:15;;;;;;;3.05;1.20;;;;;;;19.40;40.78;101918.69;4990000;28;20048;-77
2022/08/25 00:53:42;;;;;;;2.25;1.30;;;;;;;19.37;40.95;101922.38;4985929;28;20124;-77
2022/08/25 00:56:08;;;;;;;3.08;1.23;;;;;;;19.33;41.17;101925.31;4979183;28;20807;-78
2022/08/25 00:58:34;;;;;;;3.17;1.33;;;;;;;19.33;41.34;101922.66;5004868;28;20045;-78
2022/08/25 01:01:00;;;;;;;5.10;1.23;;;;;;;19.26;41.19;101920.38;4998580;28;20106;-78
2022/08/25 01:03:28;;;;;;;4.05;1.73;;;;;;;19.28;40.98;101926.44;4988182;28;20056;-78
2022/08/25 01:05:55;;;;;;;3.13;1.40;;;;;;;19.25;41.31;101928.41;5003167;28;20049;-76
2022/08/25 01:08:26;;;;;;;3.53;1.02;;;;;;;19.29;41.23;101928.13;4988684;28;20064;-78
2022/08/25 01:10:52;;;;;;;6.07;1.00;;;;;;;19.25;41.29;101928.41;4995215;28;20286;-76
2022/08/25 01:13:23;;;;;;;1.88;0.85;;;;;;;19.21;41.54;101930.41;4983371;28;20050;-78
2022/08/25 01:15:52;;;;;;;3.47;1.50;;;;;;;19.20;41.15;101926.03;5004511;28;20056;-76
2022/08/25 01:18:18;;;;;;;2.70;0.95;;;;;;;19.21;40.98;101929.53;4997576;28;22412;-77
2022/08/25 01:20:56;;;;;;;3.15;1.20;;;;;;;19.20;41.42;101936.63;5001792;28;20543;-77
2022/08/25 01:23:23;;;;;;;2.97;1.42;;;;;;;19.21;41.25;101934.81;4986234;28;20120;-78
2022/08/25 01:26:03;;;;;;;2.83;1.30;;;;;;;19.19;41.11;101942.00;5002322;28;20040;-78
2022/08/25 01:28:29;;;;;;;5.88;2.20;;;;;;;19.16;41.18;101932.47;5017070;28;20037;-78
2022/08/25 01:30:54;;;;;;;2.83;1.48;;;;;;;19.08;41.17;101929.44;4992042;28;20045;-77
2022/08/25 01:33:20;;;;;;;4.82;1.25;;;;;;;19.08;41.30;101929.44;4986852;28;20046;-76
2022/08/25 01:35:46;;;;;;;6.57;1.23;;;;;;;19.01;41.67;101925.41;5005183;28;20030;-77
2022/08/25 01:38:12;;;;;;;5.68;1.85;;;;;;;19.07;41.35;101923.25;4989941;28;20565;-76
2022/08/25 01:40:39;;;;;;;2.35;1.58;;;;;;;19.00;41.74;101926.38;5020018;28;20109;-77
2022/08/25 01:43:13;;;;;;;2.83;1.17;;;;;;;19.00;41.66;101926.38;4983801;28;20041;-76
2022/08/25 01:45:42;;;;;;;4.50;1.50;;;;;;;19.06;41.37;101928.66;5010410;28;20073;-76
2022/08/25 01:48:09;;;;;;;4.50;1.10;;;;;;;19.04;41.64;101933.22;5005962;28;20054;-79
2022/08/25 01:50:35;;;;;;;2.17;1.42;;;;;;;19.07;41.25;101927.72;5025368;28;20795;-78
2022/08/25 01:53:10;;;;;;;1.98;1.50;;;;;;;18.94;41.98;101932.88;4985427;28;20738;-77
2022/08/25 01:55:51;;;;;;;5.90;1.70;;;;;;;18.95;41.77;101933.75;4999731;28;20485;-79
2022/08/25 01:58:23;;;;;;;2.15;1.20;;;;;;;18.93;42.00;101927.69;4980252;28;20125;-77
2022/08/25 02:00:49;;;;;;;;;;;;;;;18.93;41.83;101925.88;5021497;28;20464;-78
2022/08/25 02:03:17;;;;;;;2.17;1.30;;;;;;;18.83;42.23;101927.31;4985292;28;19921;-78
2022/08/25 02:05:43;;;;;;;3.28;1.85;;;;;;;18.79;42.35;101924.03;4984825;28;20083;-78
2022/08/25 02:08:10;;;;;;;4.13;1.90;;;;;;;18.76;42.43;101923.34;5007660;28;20045;-78
2022/08/25 02:10:36;;;;;;;2.83;1.88;;;;;;;18.71;42.44;101914.81;4991486;28;20401;-78
2022/08/25 02:13:03;;;;;;;5.43;2.88;;;;;;;18.58;42.91;101926.09;5004694;28;20065;-78
2022/08/25 02:15:29;;;;;;;5.70;2.17;;;;;;;18.56;42.98;101921.84;4989517;28;20040;-77
2022/08/25 02:17:54;;;;;;;5.10;1.90;;;;;;;18.52;43.24;101923.84;5005319;28;20331;-77
2022/08/25 02:20:20;;;;;;;5.95;2.17;;;;;;;18.48;43.28;101924.94;5004554;28;20029;-77
2022/08/25 02:22:45;;;;;;;3.90;1.75;;;;;;;18.45;43.67;101925.09;4988372;28;20101;-78
2022/08/25 02:25:11;;;;;;;5.60;2.55;;;;;;;18.39;43.59;101926.31;4994337;28;20038;-78
2022/08/25 02:27:36;;;;;;;7.50;1.73;;;;;;;18.33;43.67;101925.81;4988838;28;20042;-77
2022/08/25 02:30:04;;;;;;;3.22;2.10;;;;;;;18.35;43.90;101923.94;5005897;28;20503;-78
2022/08/25 02:32:30;;;;;;;2.88;1.85;;;;;;;18.28;43.72;101920.78;4986407;28;20045;-76
2022/08/25 02:34:55;;;;;;;2.97;2.00;;;;;;;18.26;43.76;101931.44;5011109;28;20033;-76
2022/08/25 02:37:21;;;;;;;3.08;2.30;;;;;;;18.25;43.80;101928.88;4989290;28;20131;-78
2022/08/25 02:39:47;;;;;;;3.35;2.05;;;;;;;18.21;44.03;101933.50;5006247;28;20211;-76
2022/08/25 02:42:13;;;;;;;3.38;2.00;;;;;;;18.19;44.00;101929.22;4986735;28;20408;-79
2022/08/25 02:44:39;;;;;;;1.98;1.73;;;;;;;18.13;44.11;101929.53;4989237;28;20032;-78
2022/08/25 02:47:04;;;;;;;2.47;2.28;;;;;;;18.14;43.98;101931.22;4986218;28;20049;-78
2022/08/25 02:49:30;;;;;;;3.47;2.00;;;;;;;18.08;44.26;101927.16;5002517;28;20117;-81
2022/08/25 02:51:57;;;;;;;4.40;2.08;;;;;;;18.01;44.47;101918.69;4987120;28;20037;-78
2022/08/25 02:54:24;;;;;;;5.93;2.15;;;;;;;17.97;44.60;101927.72;4987991;28;20056;-79
2022/08/25 02:56:49;;;;;;;3.40;2.08;;;;;;;17.96;44.85;101923.41;4993665;28;20452;-76
2022/08/25 02:59:16;;;;;;;6.90;2.53;;;;;;;17.93;44.55;101923.53;5019272;28;20041;-77
2022/08/25 03:01:43;;;;;;;6.22;2.58;;;;;;;17.93;44.35;101923.53;4986044;28;20034;-80
2022/08/25 03:04:09;;;;;;;4.00;2.42;;;;;;;17.90;44.60;101920.22;4987291;28;20028;-78
2022/08/25 03:06:34;;;;;;;2.47;2.22;;;;;;;17.88;44.80;101920.31;4991460;28;20030;-78
2022/08/25 03:09:00;;;;;;;3.08;2.40;;;;;;;17.82;44.78;101926.78;4983152;28;20420;-78
2022/08/25 03:11:26;;;;;;;5.78;2.65;;;;;;;17.75;45.01;101924.56;4989088;28;20030;-78
2022/08/25 03:13:52;;;;;;;4.93;2.20;;;;;;;17.78;45.26;101924.38;4985182;28;20046;-78
2022/08/25 03:16:19;;;;;;;3.15;2.63;;;;;;;17.71;45.18;101921.22;4987826;28;20030;-79
2022/08/25 03:18:45;;;;;;;2.88;2.30;;;;;;;17.74;45.14;101922.81;5002166;28;20095;-78
2022/08/25 03:21:11;;;;;;;3.95;2.95;;;;;;;17.77;45.18;101920.03;4987787;28;20031;-76
2022/08/25 03:23:37;;;;;;;4.22;1.85;;;;;;;17.79;44.84;101921.66;4989781;28;20049;-79
2022/08/25 03:28:47;;;;;;;6.70;2.67;;;;;;;17.78;44.83;101919.09;5008157;28;20740;-78
2022/08/25 03:31:12;;;;;;;2.45;1.75;;;;;;;17.74;44.94;101917.53;4985991;28;20030;-78
2022/08/25 03:33:38;;;;;;;4.80;2.20;;;;;;;17.61;45.45;101918.22;4962293;28;20065;-74
2022/08/25 03:36:05;;;;;;;3.97;1.98;;;;;;;17.62;45.34;101919.06;4988641;28;20542;-79
2022/08/25 03:38:31;;;;;;;4.32;2.20;;;;;;;17.65;45.25;101918.91;4987649;28;20404;-79
2022/08/25 03:40:56;;;;;;;3.80;1.85;;;;;;;17.58;45.43;101921.03;5001432;28;20048;-78
2022/08/25 03:43:22;;;;;;;6.20;1.98;;;;;;;17.55;45.47;101920.34;4981403;28;20041;-79
2022/08/25 03:45:48;;;;;;;3.55;2.85;;;;;;;17.54;45.39;101910.72;4989704;28;20585;-80
2022/08/25 03:48:14;;;;;;;4.07;2.63;;;;;;;17.53;45.55;101925.69;4983151;28;20484;-78
2022/08/25 03:50:45;;;;;;;2.58;2.00;;;;;;;17.53;45.47;101924.84;5003514;28;20033;-80
2022/08/25 03:53:11;;;;;;;3.28;2.45;;;;;;;17.48;45.58;101922.44;5004097;28;20650;-81
2022/08/25 03:55:36;;;;;;;5.75;2.80;;;;;;;17.45;45.64;101917.31;5006909;28;20065;-77
2022/08/25 03:58:02;;;;;;;3.65;2.08;;;;;;;17.41;45.90;101921.03;4989109;28;20034;-78
2022/08/25 04:00:27;;;;;;;3.58;2.75;;;;;;;17.32;45.82;101914.44;5006027;28;20049;-80
2022/08/25 04:02:53;;;;;;;4.30;2.17;;;;;;;17.29;46.12;101914.63;4980501;28;20039;-75
2022/08/25 04:05:19;;;;;;;7.55;2.30;;;;;;;17.31;45.75;101909.22;4989912;28;20025;-80
2022/08/25 04:07:44;;;;;;;5.50;2.80;;;;;;;17.12;46.26;101915.47;4991475;28;20400;-83
2022/08/25 04:10:11;;;;;;;3.13;2.58;;;;;;;17.21;46.08;101915.00;4997925;28;20049;-79
2022/08/25 04:12:37;;;;;;;5.13;2.10;;;;;;;17.19;46.21;101913.38;5007754;28;20128;-80
2022/08/25 04:15:04;;;;;;;3.30;2.50;;;;;;;17.23;46.21;101913.13;5004958;28;20081;-81
2022/08/25 04:17:30;;;;;;;6.65;2.78;;;;;;;17.10;46.40;101911.22;4992868;28;20066;-78
2022/08/25 04:19:56;;;;;;;5.13;2.50;;;;;;;17.14;46.50;101912.75;4990972;28;20598;-79
2022/08/25 04:22:21;;;;;;;4.60;2.35;;;;;;;17.03;46.50;101906.22;4990324;28;20061;-78
2022/08/25 04:24:47;;;;;;;3.78;2.97;;;;;;;17.01;46.55;101907.25;5006967;28;20120;-78
2022/08/25 04:27:13;;;;;;;4.88;2.63;;;;;;;17.12;46.48;101904.91;4998736;28;20052;-78
2022/08/25 04:29:38;;;;;;;3.55;2.78;;;;;;;17.10;46.68;101912.06;4992672;28;20094;-80
2022/08/25 04:32:04;;;;;;;5.53;3.15;;;;;;;17.02;46.78;101903.66;4987014;28;20068;-77
2022/08/25 04:34:30;;;;;;;6.35;2.97;;;;;;;17.06;46.70;101909.66;4989404;28;20029;-78
2022/08/25 04:36:57;;;;;;;5.35;2.40;;;;;;;17.05;46.87;101905.31;5000338;28;20037;-79
2022/08/25 04:39:22;;;;;;;4.13;2.90;;;;;;;17.00;46.88;101909.03;4989072;28;20251;-76
2022/08/25 04:41:49;;;;;;;5.18;2.85;;;;;;;16.98;47.10;101897.69;5009503;28;20586;-80
2022/08/25 04:44:15;;;;;;;4.53;2.67;;;;;;;17.01;47.08;101907.25;4987906;28;20105;-78
2022/08/25 04:46:41;;;;;;;5.97;3.55;;;;;;;17.02;47.11;101893.09;4985985;28;20079;-78
2022/08/25 04:49:08;;;;;;;4.80;3.47;;;;;;;17.02;47.25;101893.97;5001650;28;20156;-79
2022/08/25 04:51:38;;;;;;;6.95;3.58;;;;;;;17.10;47.32;101896.19;5005396;28;20030;-78
2022/08/25 04:54:07;;;;;;;10.93;3.83;;;;;;;17.11;47.21;101889.97;4992251;28;20168;-78
2022/08/25 04:56:33;;;;;;;6.28;3.42;;;;;;;17.03;47.33;101892.19;4988547;28;20069;-77
2022/08/25 04:59:08;;;;;;;5.30;3.80;;;;;;;17.01;47.50;101896.69;4986921;28;20072;-77
2022/08/25 05:01:35;;;;;;;5.18;3.40;;;;;;;17.05;47.67;101885.03;5000253;28;20506;-78
2022/08/25 05:04:03;;;;;;;6.68;4.55;;;;;;;17.12;47.87;101888.22;4984501;28;20041;-78
2022/08/25 05:06:29;;;;;;;8.82;4.47;;;;;;;17.02;48.15;101882.53;4991257;28;20117;-78
2022/08/25 05:08:56;;;;;;;11.95;4.15;;;;;;;17.15;47.98;101891.53;4999517;28;20939;-78
2022/08/25 05:11:24;;;;;;;5.22;3.67;;;;;;;17.23;48.06;101884.06;4989677;28;20033;-77
2022/08/25 05:13:51;;;;;;;5.70;4.25;;;;;;;17.27;47.88;101895.34;5002294;28;20041;-78
2022/08/25 05:16:19;;;;;;;5.82;4.43;;;;;;;17.32;47.79;101889.81;5007973;28;20233;-78
2022/08/25 05:18:45;;;;;;;5.93;4.20;;;;;;;17.27;48.11;101891.81;4983004;28;20045;-76
2022/08/25 05:21:14;;;;;;;8.30;4.32;;;;;;;17.29;48.38;101889.94;4988055;28;20463;-78
2022/08/25 05:23:40;;;;;;;6.80;4.40;;;;;;;17.89;47.10;101889.41;4991200;28;20049;-78
2022/08/25 05:26:11;;;;;;;5.28;4.43;;;;;;;19.22;44.32;101888.84;4993112;28;20034;-79
2022/08/25 05:28:40;;;;;;;7.03;4.53;;;;;;;20.60;40.87;101881.91;4950529;28;20149;-79
2022/08/25 05:31:07;;;;;;;6.20;4.15;;;;;;;21.17;39.41;101878.88;4982101;28;20037;-77
2022/08/25 05:33:33;;;;;;;9.68;5.25;;;;;;;21.52;38.63;101884.44;4973735;28;20119;-81
2022/08/25 05:35:59;;;;;;;6.90;4.20;;;;;;;21.60;38.60;101875.91;5009499;28;20034;-80
2022/08/25 05:38:25;;;;;;;9.00;3.67;;;;;;;20.85;40.40;101873.16;4968428;28;20102;-77
2022/08/25 05:41:09;;;;;;;7.03;3.88;;;;;;;21.57;38.77;101886.75;5002805;28;20030;-77
2022/08/25 05:43:39;;;;;;;6.00;4.25;;;;;;;23.16;36.58;101881.19;4997136;28;20050;-78
2022/08/25 05:46:04;;;;;;;6.10;4.13;;;;;;;24.09;34.44;101888.09;5012784;28;20030;-77
2022/08/25 05:48:30;;;;;;;6.68;4.18;;;;;;;24.39;34.03;101882.00;5004145;28;20045;-79
2022/08/25 05:50:58;;;;;;;8.50;4.13;;;;;;;24.88;33.56;101883.22;4990359;28;20049;-77
2022/08/25 05:53:26;;;;;;;7.50;4.63;;;;;;;25.33;32.36;101879.41;5003833;28;20054;-79
2022/08/25 05:55:53;;;;;;;9.43;5.03;;;;;;;25.09;33.12;101885.09;5020627;28;20732;-79
2022/08/25 05:58:20;;;;;;;5.10;4.60;;;;;;;25.11;33.45;101880.44;4995343;28;20570;-78
2022/08/25 06:00:46;;;;;;;4.85;3.90;;;;;;;25.27;33.18;101872.78;4989610;28;20041;-79
2022/08/25 06:03:12;;;;;;;5.47;4.97;;;;;;;25.21;33.01;101881.34;4987872;28;20073;-78
2022/08/25 06:05:37;;;;;;;5.10;4.47;;;;;;;25.19;33.14;101878.78;4992805;28;20040;-78
2022/08/25 06:08:03;;;;;;;9.73;4.28;;;;;;;25.79;32.47;101876.19;4988106;28;20150;-79
2022/08/25 06:10:29;;;;;;;10.00;5.75;;;;;;;25.78;32.19;101871.84;4987392;28;20040;-77
2022/08/25 06:12:54;;;;;;;9.05;4.82;;;;;;;25.81;32.36;101868.03;4988434;28;20884;-77
2022/08/25 06:15:22;;;;;;;4.55;4.15;;;;;;;26.04;31.62;101873.97;4991751;28;20593;-81
2022/08/25 06:17:49;;;;;;;10.57;5.95;;;;;;;26.69;31.00;101875.16;5003753;28;20096;-79
2022/08/25 06:20:20;;;;;;;7.65;5.22;;;;;;;27.15;30.14;101880.69;4989880;28;20021;-81
2022/08/25 06:22:46;;;;;;;8.93;5.30;;;;;;;27.66;29.42;101887.41;5007501;28;20517;-78
2022/08/25 06:25:14;;;;;;;7.40;5.05;;;;;;;28.42;28.21;101879.94;4990006;28;20081;-80
2022/08/25 06:27:40;;;;;;;6.43;4.35;;;;;;;28.68;27.91;101880.84;4988096;28;20041;-81
2022/08/25 06:30:09;;;;;;;14.90;8.35;;;;;;;28.64;28.21;101878.63;4987315;28;20029;-80
2022/08/25 06:32:37;;;;;;;6.55;4.85;;;;;;;27.87;29.35;101875.53;4998351;28;20141;-78
2022/08/25 06:35:04;;;;;;;5.05;4.57;;;;;;;27.87;29.33;101881.75;4987278;28;20088;-76
2022/08/25 06:37:30;;;;;;;6.78;5.38;;;;;;;27.56;29.80;101877.66;5005181;28;20103;-77
2022/08/25 06:39:55;;;;;;;6.97;4.65;;;;;;;27.31;30.03;101885.44;4989857;28;20042;-79
2022/08/25 06:42:21;;;;;;;9.77;6.03;;;;;;;27.58;29.92;101873.00;5006832;28;20068;-78
2022/08/25 06:44:47;;;;;;;9.02;4.70;;;;;;;28.24;29.15;101886.19;4995054;28;20037;-78
2022/08/25 06:47:14;;;;;;;12.55;7.60;;;;;;;28.04;29.43;101885.44;4989771;28;20037;-78
2022/08/25 06:49:44;;;;;;;7.88;4.65;;;;;;;28.51;28.64;101879.00;4990893;28;20037;-78
2022/08/25 06:52:10;;;;;;;8.85;5.50;;;;;;;28.18;29.06;101878.72;5001237;28;20042;-78
2022/08/25 06:54:36;;;;;;;10.73;5.43;;;;;;;28.31;29.06;101868.41;5005779;28;20742;-76
2022/08/25 06:57:03;;;;;;;9.38;6.07;;;;;;;28.21;29.07;101873.06;5020653;28;20038;-78
2022/08/25 06:59:28;;;;;;;9.02;4.30;;;;;;;27.95;29.79;101869.41;4988257;28;20034;-77
2022/08/25 07:01:54;;;;;;;9.50;5.28;;;;;;;28.36;29.15;101875.19;4993083;28;20069;-79
2022/08/25 07:04:19;;;;;;;8.73;5.35;;;;;;;28.99;28.13;101872.28;4993965;28;20030;-78
2022/08/25 07:06:45;;;;;;;6.85;4.25;;;;;;;29.72;26.69;101870.94;4991808;28;20030;-78
2022/08/25 07:09:12;;;;;;;5.50;4.63;;;;;;;30.52;27.01;101868.50;4990995;28;20041;-78
2022/08/25 07:11:42;;;;;;;4.93;3.78;;;;;;;31.30;25.53;101871.56;4993295;28;20043;-78
2022/08/25 07:14:10;;;;;;;7.35;4.30;;;;;;;31.90;24.17;101870.88;5004913;28;20125;-80
2022/08/25 07:16:36;;;;;;;5.30;4.45;;;;;;;31.29;24.36;101872.56;4998710;28;20720;-81
2022/08/25 07:19:03;;;;;;;12.23;5.28;;;;;;;31.34;24.63;101871.03;5008277;28;20045;-79
2022/08/25 07:21:32;;;;;;;9.27;5.38;;;;;;;30.67;25.43;101873.22;5008948;28;20041;-78
2022/08/25 07:23:59;;;;;;;7.20;4.95;;;;;;;30.79;25.54;101864.59;5004508;28;20038;-76
2022/08/25 07:26:28;;;;;;;8.95;5.18;;;;;;;30.12;26.00;101872.88;5012591;28;20034;-79
2022/08/25 07:28:54;;;;;;;6.85;4.70;;;;;;;30.67;25.48;101874.06;4984840;28;20069;-78
2022/08/25 07:31:19;;;;;;;8.27;5.15;;;;;;;31.03;24.76;101878.25;4984130;28;20166;-78
2022/08/25 07:36:30;;;;;;;7.13;4.50;;;;;;;30.57;25.93;101870.72;5012487;28;20083;-80
2022/08/25 07:38:57;;;;;;;8.07;4.60;;;;;;;31.34;25.11;101868.31;4988164;28;20108;-80
2022/08/25 07:41:23;;;;;;;6.20;4.30;;;;;;;31.53;24.55;101875.16;4992765;28;20029;-79
2022/08/25 07:43:49;;;;;;;7.85;4.30;;;;;;;31.96;23.76;101875.63;4985936;28;20265;-79
2022/08/25 07:46:14;;;;;;;7.32;4.80;;;;;;;32.06;24.04;101882.63;5002444;28;20030;-78
2022/08/25 07:48:40;;;;;;;10.63;5.57;;;;;;;31.81;23.95;101874.69;5001593;28;20501;-79
2022/08/25 07:51:13;;;;;;;9.52;4.80;;;;;;;31.37;25.24;101883.31;4980727;28;20036;-78
2022/08/25 07:53:39;;;;;;;9.68;5.30;;;;;;;30.66;25.41;101880.47;4974391;28;20604;-80
2022/08/25 07:56:13;;;;;;;9.07;4.78;;;;;;;31.18;25.18;101871.06;4984670;28;20033;-78
2022/08/25 07:58:40;;;;;;;10.30;5.18;;;;;;;31.29;24.75;101867.16;4988314;28;20037;-76
2022/08/25 08:01:11;;;;;;;5.53;4.50;;;;;;;31.88;24.26;101866.69;4995533;28;20018;-78
2022/08/25 08:03:37;;;;;;;5.18;4.22;;;;;;;31.27;25.02;101858.38;4994273;28;20057;-78
2022/08/25 08:06:07;;;;;;;9.40;6.07;;;;;;;31.14;25.14;101865.19;4982642;28;20052;-78
2022/08/25 08:08:33;;;;;;;9.20;4.60;;;;;;;30.86;25.22;101872.84;5003605;28;20160;-79
2022/08/25 08:10:59;;;;;;;10.02;5.50;;;;;;;31.86;24.34;101874.97;4988161;28;20407;-79
2022/08/25 08:13:25;;;;;;;6.60;4.65;;;;;;;32.02;24.00;101864.06;4997006;28;20107;-78
2022/08/25 08:15:52;;;;;;;7.60;5.28;;;;;;;31.85;24.50;101872.44;4991377;28;20072;-78
2022/08/25 08:18:17;;;;;;;7.55;5.35;;;;;;;32.52;23.85;101879.88;5003390;28;20053;-77
2022/08/25 08:20:45;;;;;;;6.20;4.63;;;;;;;32.22;24.10;101868.97;4988693;28;20026;-78
2022/08/25 08:23:11;;;;;;;12.23;5.97;;;;;;;32.56;23.49;101860.38;4984956;28;20042;-76
2022/08/25 08:25:36;;;;;;;5.80;4.55;;;;;;;32.68;23.27;101866.22;4992848;28;20411;-78
2022/08/25 08:28:02;;;;;;;7.72;4.97;;;;;;;31.71;24.54;101866.78;5005193;28;20069;-77
2022/08/25 08:30:27;;;;;;;8.88;4.63;;;;;;;32.19;23.81;101866.66;4992258;28;20092;-78
2022/08/25 08:32:55;;;;;;;5.28;4.18;;;;;;;32.53;23.30;101860.78;5003957;28;20041;-79
2022/08/25 08:35:21;;;;;;;10.00;5.28;;;;;;;32.82;23.30;101859.13;5025490;28;20033;-79
2022/08/25 08:37:47;;;;;;;11.57;4.53;;;;;;;33.21;23.11;101857.97;4991318;28;20049;-76
2022/08/25 08:40:17;;;;;;;9.30;5.10;;;;;;;33.16;22.72;101853.13;4995696;28;20036;-80
2022/08/25 08:42:52;;;;;;;;;;;;;;;33.17;23.01;101867.50;4982297;28;20503;-80
2022/08/25 08:45:27;;;;;;;9.25;6.00;;;;;;;31.78;24.20;101867.78;5011125;28;19925;-80
2022/08/25 08:47:54;;;;;;;7.05;5.32;;;;;;;31.67;24.86;101862.75;5001414;28;20066;-79
2022/08/25 08:50:25;;;;;;;9.82;5.35;;;;;;;31.80;24.91;101854.06;5013654;28;20036;-82
2022/08/25 08:52:54;;;;;;;7.07;5.07;;;;;;;31.92;24.56;101857.16;4993203;28;20453;-78
2022/08/25 08:55:31;;;;;;;11.95;5.45;;;;;;;31.72;25.16;101851.44;4996993;28;20061;-80
2022/08/25 08:58:00;;;;;;;9.40;5.10;;;;;;;31.66;25.08;101852.13;4994996;28;20106;-79
2022/08/25 09:00:27;;;;;;;9.15;6.05;;;;;;;30.83;26.08;101846.22;4994196;28;20029;-79
2022/08/25 09:03:22;;;;;;;14.60;6.57;;;;;;;30.97;25.84;101850.88;4995351;28;20177;-79
2022/08/25 09:05:51;;;;;;;5.90;5.20;;;;;;;30.77;25.82;101839.63;5026541;28;20038;-80
2022/08/25 09:08:17;;;;;;;9.45;4.93;;;;;;;30.15;26.78;101842.03;4985673;28;20125;-77
2022/08/25 09:11:13;;;;;;;5.45;4.95;;;;;;;29.12;28.52;101845.78;5012209;28;20094;-77
2022/08/25 09:14:04;;;;;;;9.45;5.15;;;;;;;28.45;29.91;101848.19;4993807;28;20518;-78
2022/08/25 09:16:54;;;;;;;9.20;5.17;;;;;;;28.16;30.40;101848.47;4983433;28;20520;-78
2022/08/25 09:19:58;;;;;;;8.53;4.90;;;;;;;27.82;30.77;101845.59;5012522;28;20296;-76
2022/08/25 09:23:05;;;;;;;9.95;7.35;;;;;;;28.23;30.36;101836.09;5010558;28;20089;-79
2022/08/25 09:25:44;;;;;;;6.63;5.93;;;;;;;27.76;30.72;101836.31;4933409;28;20042;-78
2022/08/25 09:28:24;;;;;;;14.75;5.95;;;;;;;27.91;31.24;101832.09;5002161;28;21115;-76
2022/08/25 09:31:21;;;;;;;9.73;5.72;;;;;;;28.17;30.60;101838.59;5029227;28;20038;-77
2022/08/25 09:33:47;;;;;;;7.57;4.32;;;;;;;27.91;30.61;101839.31;4960391;28;20081;-77
2022/08/25 09:36:13;;;;;;;8.02;6.18;;;;;;;27.17;31.45;101837.63;4994212;28;20030;-77
2022/08/25 09:38:39;;;;;;;7.50;4.45;;;;;;;27.11;31.54;101831.84;4997604;28;20037;-75
2022/08/25 09:41:07;;;;;;;6.57;5.38;;;;;;;28.03;31.21;101826.47;4990947;28;20025;-76
2022/08/25 09:43:40;;;;;;;9.48;5.47;;;;;;;28.58;30.53;101820.91;5006663;28;20034;-78
2022/08/25 09:46:22;;;;;;;13.00;4.90;;;;;;;28.42;29.69;101826.19;5010326;28;20408;-76
2022/08/25 09:48:54;;;;;;;7.13;5.22;;;;;;;28.79;29.80;101814.31;5004197;28;20038;-76
2022/08/25 09:51:34;;;;;;;6.90;4.57;;;;;;;28.68;29.69;101810.06;4985444;28;20038;-76
2022/08/25 09:54:04;;;;;;;8.77;4.82;;;;;;;28.57;29.60;101803.09;4991179;28;20061;-76
2022/08/25 09:56:32;;;;;;;8.00;4.60;;;;;;;28.40;29.01;101802.13;4994191;28;20034;-77
2022/08/25 09:59:20;;;;;;;7.60;4.45;;;;;;;28.00;29.71;101805.31;4972497;28;20037;-79
2022/08/25 10:01:58;;;;;;;7.45;5.40;;;;;;;28.05;30.29;101792.25;5007164;28;20048;-75
2022/08/25 10:04:28;;;;;;;8.68;5.22;;;;;;;28.25;29.72;101793.78;4990002;28;20056;-78
2022/08/25 10:06:54;;;;;;;10.38;5.57;;;;;;;28.26;30.26;101784.72;5014662;28;20037;-77
2022/08/25 10:09:42;;;;;;;17.30;4.90;;;;;;;28.36;30.20;101779.25;4996089;28;20040;-76
2022/08/25 10:12:20;;;;;;;6.68;4.47;;;;;;;28.19;29.42;101778.31;4992323;28;20125;-76
2022/08/25 10:14:46;;;;;;;8.35;4.80;;;;;;;28.10;28.99;101779.22;4998256;28;20033;-77
2022/08/25 10:17:25;;;;;;;9.15;5.18;;;;;;;28.05;29.85;101776.97;5008043;28;20042;-79
2022/08/25 10:19:53;;;;;;;6.60;5.15;;;;;;;27.85;29.83;101779.00;5004606;28;20066;-78
2022/08/25 10:22:30;;;;;;;10.10;5.53;;;;;;;27.94;29.95;101769.16;5000665;28;20080;-78
2022/08/25 10:24:57;;;;;;;5.30;4.10;;;;;;;27.24;30.24;101766.25;5003007;28;20030;-76
2022/08/25 10:27:34;;;;;;;6.97;5.60;;;;;;;27.97;29.91;101758.09;4998374;28;20042;-78
2022/08/25 10:30:27;;;;;;;6.10;4.72;;;;;;;28.11;30.25;101754.84;5002978;28;20026;-76
2022/08/25 10:33:04;;;;;;;5.55;4.68;;;;;;;28.16;28.68;101751.72;4997811;28;20107;-78
2022/08/25 10:35:33;;;;;;;4.28;3.85;;;;;;;28.51;29.42;101748.09;4987919;28;20646;-78
2022/08/25 10:38:37;;;;;;;7.90;4.70;;;;;;;28.48;29.64;101744.88;5003531;28;20034;-80
2022/08/25 10:41:29;;;;;;;7.10;5.15;;;;;;;28.55;29.38;101740.56;5003962;28;20025;-81
2022/08/25 10:43:57;;;;;;;4.72;4.30;;;;;;;28.92;29.38;101736.69;4986532;28;20453;-79
2022/08/25 10:46:48;;;;;;;9.77;3.47;;;;;;;29.46;28.90;101723.75;5005760;28;20112;-78
2022/08/25 10:49:44;;;;;;;5.07;3.60;;;;;;;29.70;28.73;101722.94;4996228;28;20056;-79
2022/08/25 10:52:19;;;;;;;6.15;4.57;;;;;;;29.63;27.88;101713.84;4989286;28;20053;-82
2022/08/25 10:55:04;;;;;;;6.68;4.60;;;;;;;29.07;27.79;101710.84;5007921;28;20973;-79
2022/08/25 10:57:29;;;;;;;8.52;4.55;;;;;;;29.21;27.75;101708.56;4990498;28;20057;-77
2022/08/25 11:00:12;;;;;;;7.63;4.40;;;;;;;28.67;29.41;101709.69;4994679;28;20652;-78
2022/08/25 11:03:10;;;;;;;5.53;4.10;;;;;;;28.89;28.09;101700.22;5002037;28;20042;-76
2022/08/25 11:06:04;;;;;;;10.93;4.05;;;;;;;29.25;28.45;101705.38;4992345;28;20038;-78
2022/08/25 11:08:39;;;;;;;10.50;4.15;;;;;;;29.29;27.91;101687.88;5017553;28;20035;-78
2022/08/25 11:11:09;;;;;;;4.47;3.80;;;;;;;28.72;28.68;101683.19;5008700;28;20033;-79
2022/08/25 11:13:51;;;;;;;4.93;3.67;;;;;;;28.52;28.87;101687.06;5005318;28;20885;-77
2022/08/25 11:16:24;;;;;;;6.07;4.00;;;;;;;28.75;28.92;101682.00;4986531;28;20042;-79
2022/08/25 11:19:05;;;;;;;10.25;4.68;;;;;;;28.15;28.99;101685.56;4975707;28;20050;-77
2022/08/25 11:21:37;;;;;;;7.70;4.85;;;;;;;28.17;29.27;101674.66;5006265;28;20094;-80
2022/08/25 11:24:41;;;;;;;4.85;4.35;;;;;;;28.24;28.55;101679.22;5002704;28;20042;-81
2022/08/25 11:27:14;;;;;;;14.10;4.82;;;;;;;29.14;27.88;101676.91;4997762;28;20708;-78
2022/08/25 11:29:42;;;;;;;11.00;4.32;;;;;;;29.53;27.13;101675.47;4995751;28;20050;-80
2022/08/25 11:32:08;;;;;;;6.78;3.53;;;;;;;29.86;26.55;101678.13;4990286;28;20274;-76
2022/08/25 11:34:36;;;;;;;6.60;4.30;;;;;;;29.11;27.37;101669.19;5005974;28;20034;-79
2022/08/25 11:37:13;;;;;;;4.40;3.70;;;;;;;28.74;27.65;101672.25;4987946;28;20040;-78
2022/08/25 11:40:01;;;;;;;6.90;4.00;;;;;;;28.93;28.34;101657.69;5003413;28;20499;-81
2022/08/25 11:42:45;;;;;;;5.35;3.47;;;;;;;29.34;26.27;101655.06;4985406;28;20056;-79